sensor_id;sensor_type;location;lat;lon;timestamp;P1;durP1;ratioP1;P2;durP2;ratioP2
18899;SDS011;9582;52.018;6.306;2022-07-23T00:02:15;5.47;;;4.47;;
18899;SDS011;9582;52.018;6.306;2022-07-23T00:04:41;5.70;;;5.18;;
18899;SDS011;9582;52.018;6.306;2022-07-23T00:07:09;6.97;;;5.93;;
18899;SDS011;9582;52.018;6.306;2022-07-23T00:09:36;5.78;;;4.97;;
18899;SDS011;9582;52.018;6.306;2022-07-23T00:12:02;6.03;;;5.53;;
18899;SDS011;9582;52.018;6.306;2022-07-23T00:14:29;6.13;;;5.13;;
18899;SDS011;9582;52.018;6.306;2022-07-23T00:16:56;6.20;;;5.60;;
18899;SDS011;9582;52.018;6.306;2022-07-23T00:19:22;7.13;;;5.57;;
18899;SDS011;9582;52.018;6.306;2022-07-23T00:21:49;7.50;;;5.88;;
18899;SDS011;9582;52.018;6.306;2022-07-23T00:24:17;7.60;;;6.35;;
18899;SDS011;9582;52.018;6.306;2022-07-23T00:26:43;6.78;;;5.60;;
18899;SDS011;9582;52.018;6.306;2022-07-23T00:29:09;7.28;;;5.63;;
18899;SDS011;9582;52.018;6.306;2022-07-23T00:31:36;6.20;;;5.60;;
18899;SDS011;9582;52.018;6.306;2022-07-23T00:34:03;6.30;;;5.57;;
18899;SDS011;9582;52.018;6.306;2022-07-23T00:36:29;9.38;;;6.05;;
18899;SDS011;9582;52.018;6.306;2022-07-23T00:38:57;6.57;;;5.60;;
18899;SDS011;9582;52.018;6.306;2022-07-23T00:41:25;6.40;;;5.80;;
18899;SDS011;9582;52.018;6.306;2022-07-23T00:43:51;7.18;;;5.10;;
18899;SDS011;9582;52.018;6.306;2022-07-23T00:46:19;7.97;;;6.03;;
18899;SDS011;9582;52.018;6.306;2022-07-23T00:48:45;6.32;;;5.72;;
18899;SDS011;9582;52.018;6.306;2022-07-23T00:51:12;7.28;;;5.60;;
18899;SDS011;9582;52.018;6.306;2022-07-23T00:53:38;9.30;;;5.82;;
18899;SDS011;9582;52.018;6.306;2022-07-23T00:56:05;6.53;;;5.93;;
18899;SDS011;9582;52.018;6.306;2022-07-23T00:58:34;7.60;;;6.80;;
18899;SDS011;9582;52.018;6.306;2022-07-23T01:01:01;7.53;;;6.82;;
18899;SDS011;9582;52.018;6.306;2022-07-23T01:03:28;8.60;;;6.40;;
18899;SDS011;9582;52.018;6.306;2022-07-23T01:05:55;7.40;;;6.57;;
18899;SDS011;9582;52.018;6.306;2022-07-23T01:08:22;8.40;;;6.60;;
18899;SDS011;9582;52.018;6.306;2022-07-23T01:10:49;7.72;;;6.88;;
18899;SDS011;9582;52.018;6.306;2022-07-23T01:13:16;7.90;;;6.90;;
18899;SDS011;9582;52.018;6.306;2022-07-23T01:15:44;7.22;;;6.53;;
18899;SDS011;9582;52.018;6.306;2022-07-23T01:18:11;7.82;;;7.03;;
18899;SDS011;9582;52.018;6.306;2022-07-23T01:20:37;7.82;;;6.90;;
18899;SDS011;9582;52.018;6.306;2022-07-23T01:23:07;12.05;;;7.53;;
18899;SDS011;9582;52.018;6.306;2022-07-23T01:25:35;8.57;;;7.43;;
18899;SDS011;9582;52.018;6.306;2022-07-23T01:28:04;9.15;;;6.03;;
18899;SDS011;9582;52.018;6.306;2022-07-23T01:30:31;7.38;;;6.55;;
18899;SDS011;9582;52.018;6.306;2022-07-23T01:32:59;7.90;;;6.38;;
18899;SDS011;9582;52.018;6.306;2022-07-23T01:35:26;7.63;;;6.43;;
18899;SDS011;9582;52.018;6.306;2022-07-23T01:37:57;6.82;;;6.22;;
18899;SDS011;9582;52.018;6.306;2022-07-23T01:40:24;8.18;;;6.32;;
18899;SDS011;9582;52.018;6.306;2022-07-23T01:42:52;9.85;;;6.00;;
18899;SDS011;9582;52.018;6.306;2022-07-23T01:45:19;6.30;;;5.47;;
18899;SDS011;9582;52.018;6.306;2022-07-23T01:47:49;10.35;;;6.28;;
18899;SDS011;9582;52.018;6.306;2022-07-23T01:50:16;7.90;;;7.10;;
18899;SDS011;9582;52.018;6.306;2022-07-23T01:53:11;8.35;;;7.28;;
18899;SDS011;9582;52.018;6.306;2022-07-23T01:55:40;8.25;;;7.45;;
18899;SDS011;9582;52.018;6.306;2022-07-23T01:58:08;8.20;;;7.15;;
18899;SDS011;9582;52.018;6.306;2022-07-23T02:00:35;7.53;;;6.30;;
18899;SDS011;9582;52.018;6.306;2022-07-23T02:03:02;8.20;;;6.38;;
18899;SDS011;9582;52.018;6.306;2022-07-23T02:05:28;8.98;;;7.57;;
18899;SDS011;9582;52.018;6.306;2022-07-23T02:07:55;8.48;;;7.45;;
18899;SDS011;9582;52.018;6.306;2022-07-23T02:10:22;9.93;;;7.05;;
18899;SDS011;9582;52.018;6.306;2022-07-23T02:12:51;7.82;;;6.90;;
18899;SDS011;9582;52.018;6.306;2022-07-23T02:15:17;8.18;;;6.45;;
18899;SDS011;9582;52.018;6.306;2022-07-23T02:17:44;7.97;;;7.18;;
18899;SDS011;9582;52.018;6.306;2022-07-23T02:20:10;8.32;;;6.60;;
18899;SDS011;9582;52.018;6.306;2022-07-23T02:22:37;8.32;;;7.32;;
18899;SDS011;9582;52.018;6.306;2022-07-23T02:25:04;8.73;;;7.18;;
18899;SDS011;9582;52.018;6.306;2022-07-23T02:27:32;9.35;;;7.18;;
18899;SDS011;9582;52.018;6.306;2022-07-23T02:30:02;10.20;;;7.63;;
18899;SDS011;9582;52.018;6.306;2022-07-23T02:32:29;9.45;;;7.00;;
18899;SDS011;9582;52.018;6.306;2022-07-23T02:34:55;7.80;;;7.00;;
18899;SDS011;9582;52.018;6.306;2022-07-23T02:37:22;9.00;;;7.03;;
18899;SDS011;9582;52.018;6.306;2022-07-23T02:39:48;7.70;;;6.93;;
18899;SDS011;9582;52.018;6.306;2022-07-23T02:42:15;7.97;;;7.28;;
18899;SDS011;9582;52.018;6.306;2022-07-23T02:44:42;9.98;;;7.00;;
18899;SDS011;9582;52.018;6.306;2022-07-23T02:47:10;8.45;;;7.38;;
18899;SDS011;9582;52.018;6.306;2022-07-23T02:49:37;11.30;;;8.30;;
18899;SDS011;9582;52.018;6.306;2022-07-23T02:52:05;8.85;;;7.22;;
18899;SDS011;9582;52.018;6.306;2022-07-23T02:54:31;8.07;;;7.25;;
18899;SDS011;9582;52.018;6.306;2022-07-23T02:56:58;8.82;;;7.93;;
18899;SDS011;9582;52.018;6.306;2022-07-23T02:59:25;10.23;;;8.00;;
18899;SDS011;9582;52.018;6.306;2022-07-23T03:01:52;7.25;;;5.68;;
18899;SDS011;9582;52.018;6.306;2022-07-23T03:04:19;6.93;;;5.93;;
18899;SDS011;9582;52.018;6.306;2022-07-23T03:06:46;6.20;;;5.20;;
18899;SDS011;9582;52.018;6.306;2022-07-23T03:09:13;9.25;;;6.60;;
18899;SDS011;9582;52.018;6.306;2022-07-23T03:11:40;4.40;;;4.00;;
18899;SDS011;9582;52.018;6.306;2022-07-23T03:14:06;5.22;;;4.45;;
18899;SDS011;9582;52.018;6.306;2022-07-23T03:16:34;5.55;;;5.05;;
18899;SDS011;9582;52.018;6.306;2022-07-23T03:19:01;4.75;;;4.35;;
18899;SDS011;9582;52.018;6.306;2022-07-23T03:21:29;9.27;;;6.60;;
18899;SDS011;9582;52.018;6.306;2022-07-23T03:23:55;4.87;;;4.17;;
18899;SDS011;9582;52.018;6.306;2022-07-23T03:26:22;4.80;;;3.97;;
18899;SDS011;9582;52.018;6.306;2022-07-23T03:28:51;9.23;;;5.10;;
18899;SDS011;9582;52.018;6.306;2022-07-23T03:31:18;6.30;;;5.70;;
18899;SDS011;9582;52.018;6.306;2022-07-23T03:33:44;6.93;;;6.23;;
18899;SDS011;9582;52.018;6.306;2022-07-23T03:36:11;6.73;;;5.57;;
18899;SDS011;9582;52.018;6.306;2022-07-23T03:38:42;6.45;;;5.00;;
18899;SDS011;9582;52.018;6.306;2022-07-23T03:41:08;5.57;;;4.90;;
18899;SDS011;9582;52.018;6.306;2022-07-23T03:43:35;5.47;;;5.07;;
18899;SDS011;9582;52.018;6.306;2022-07-23T03:46:01;5.70;;;5.20;;
18899;SDS011;9582;52.018;6.306;2022-07-23T03:48:28;8.30;;;7.43;;
18899;SDS011;9582;52.018;6.306;2022-07-23T03:50:55;8.43;;;7.53;;
18899;SDS011;9582;52.018;6.306;2022-07-23T03:53:21;9.25;;;7.93;;
18899;SDS011;9582;52.018;6.306;2022-07-23T03:55:49;9.57;;;8.13;;
18899;SDS011;9582;52.018;6.306;2022-07-23T03:58:16;9.75;;;8.60;;
18899;SDS011;9582;52.018;6.306;2022-07-23T04:00:42;8.57;;;7.63;;
18899;SDS011;9582;52.018;6.306;2022-07-23T04:03:09;9.30;;;8.10;;
18899;SDS011;9582;52.018;6.306;2022-07-23T04:05:35;10.53;;;9.20;;
18899;SDS011;9582;52.018;6.306;2022-07-23T04:08:05;12.80;;;10.07;;
18899;SDS011;9582;52.018;6.306;2022-07-23T04:10:33;13.60;;;10.43;;
18899;SDS011;9582;52.018;6.306;2022-07-23T04:13:00;11.25;;;10.05;;
18899;SDS011;9582;52.018;6.306;2022-07-23T04:15:27;13.30;;;10.27;;
18899;SDS011;9582;52.018;6.306;2022-07-23T04:17:54;14.43;;;9.93;;
18899;SDS011;9582;52.018;6.306;2022-07-23T04:20:22;11.57;;;10.13;;
18899;SDS011;9582;52.018;6.306;2022-07-23T04:22:54;10.53;;;9.40;;
18899;SDS011;9582;52.018;6.306;2022-07-23T04:25:21;9.93;;;8.93;;
18899;SDS011;9582;52.018;6.306;2022-07-23T04:27:48;9.70;;;8.10;;
18899;SDS011;9582;52.018;6.306;2022-07-23T04:30:16;11.05;;;8.52;;
18899;SDS011;9582;52.018;6.306;2022-07-23T04:32:43;9.67;;;7.40;;
18899;SDS011;9582;52.018;6.306;2022-07-23T04:35:18;8.00;;;7.20;;
18899;SDS011;9582;52.018;6.306;2022-07-23T04:37:45;7.50;;;6.80;;
18899;SDS011;9582;52.018;6.306;2022-07-23T04:40:12;10.63;;;7.80;;
18899;SDS011;9582;52.018;6.306;2022-07-23T04:42:39;11.63;;;9.30;;
18899;SDS011;9582;52.018;6.306;2022-07-23T04:45:06;16.35;;;10.80;;
18899;SDS011;9582;52.018;6.306;2022-07-23T04:47:35;12.68;;;10.65;;
18899;SDS011;9582;52.018;6.306;2022-07-23T04:50:01;11.53;;;9.73;;
18899;SDS011;9582;52.018;6.306;2022-07-23T04:52:28;11.75;;;9.00;;
18899;SDS011;9582;52.018;6.306;2022-07-23T04:54:55;10.95;;;9.73;;
18899;SDS011;9582;52.018;6.306;2022-07-23T04:57:22;14.13;;;10.88;;
18899;SDS011;9582;52.018;6.306;2022-07-23T04:59:48;13.40;;;10.40;;
18899;SDS011;9582;52.018;6.306;2022-07-23T05:02:15;14.43;;;11.60;;
18899;SDS011;9582;52.018;6.306;2022-07-23T05:04:43;11.80;;;10.57;;
18899;SDS011;9582;52.018;6.306;2022-07-23T05:07:10;13.65;;;10.55;;
18899;SDS011;9582;52.018;6.306;2022-07-23T05:09:37;14.80;;;11.07;;
18899;SDS011;9582;52.018;6.306;2022-07-23T05:12:04;12.13;;;10.88;;
18899;SDS011;9582;52.018;6.306;2022-07-23T05:14:31;15.95;;;11.45;;
18899;SDS011;9582;52.018;6.306;2022-07-23T05:16:58;12.32;;;10.45;;
18899;SDS011;9582;52.018;6.306;2022-07-23T05:19:25;12.80;;;11.23;;
18899;SDS011;9582;52.018;6.306;2022-07-23T05:21:54;13.13;;;10.45;;
18899;SDS011;9582;52.018;6.306;2022-07-23T05:24:21;14.45;;;11.07;;
18899;SDS011;9582;52.018;6.306;2022-07-23T05:26:48;15.40;;;11.00;;
18899;SDS011;9582;52.018;6.306;2022-07-23T05:29:15;12.60;;;10.77;;
18899;SDS011;9582;52.018;6.306;2022-07-23T05:31:41;12.65;;;10.52;;
18899;SDS011;9582;52.018;6.306;2022-07-23T05:34:08;12.00;;;10.32;;
18899;SDS011;9582;52.018;6.306;2022-07-23T05:36:36;12.35;;;9.57;;
18899;SDS011;9582;52.018;6.306;2022-07-23T05:39:04;12.48;;;9.18;;
18899;SDS011;9582;52.018;6.306;2022-07-23T05:41:34;10.40;;;8.48;;
18899;SDS011;9582;52.018;6.306;2022-07-23T05:44:02;9.10;;;8.20;;
18899;SDS011;9582;52.018;6.306;2022-07-23T05:46:29;8.57;;;7.63;;
18899;SDS011;9582;52.018;6.306;2022-07-23T05:49:01;9.90;;;8.10;;
18899;SDS011;9582;52.018;6.306;2022-07-23T05:51:50;8.63;;;7.30;;
18899;SDS011;9582;52.018;6.306;2022-07-23T05:54:27;9.07;;;7.15;;
18899;SDS011;9582;52.018;6.306;2022-07-23T05:56:53;9.00;;;6.55;;
18899;SDS011;9582;52.018;6.306;2022-07-23T05:59:20;10.05;;;7.03;;
18899;SDS011;9582;52.018;6.306;2022-07-23T06:01:47;8.55;;;6.93;;
18899;SDS011;9582;52.018;6.306;2022-07-23T06:04:15;8.25;;;6.88;;
18899;SDS011;9582;52.018;6.306;2022-07-23T06:06:50;7.00;;;6.13;;
18899;SDS011;9582;52.018;6.306;2022-07-23T06:09:17;8.43;;;6.32;;
18899;SDS011;9582;52.018;6.306;2022-07-23T06:11:45;8.43;;;6.75;;
18899;SDS011;9582;52.018;6.306;2022-07-23T06:14:11;10.57;;;7.07;;
18899;SDS011;9582;52.018;6.306;2022-07-23T06:16:49;7.20;;;6.50;;
18899;SDS011;9582;52.018;6.306;2022-07-23T06:19:16;9.43;;;6.28;;
18899;SDS011;9582;52.018;6.306;2022-07-23T06:21:44;8.18;;;5.65;;
18899;SDS011;9582;52.018;6.306;2022-07-23T06:24:10;7.57;;;6.10;;
18899;SDS011;9582;52.018;6.306;2022-07-23T06:26:37;11.38;;;6.35;;
18899;SDS011;9582;52.018;6.306;2022-07-23T06:29:05;8.65;;;6.65;;
18899;SDS011;9582;52.018;6.306;2022-07-23T06:31:32;8.15;;;5.90;;
18899;SDS011;9582;52.018;6.306;2022-07-23T06:33:59;6.72;;;5.18;;
18899;SDS011;9582;52.018;6.306;2022-07-23T06:36:25;6.95;;;5.90;;
18899;SDS011;9582;52.018;6.306;2022-07-23T06:38:52;5.28;;;4.70;;
18899;SDS011;9582;52.018;6.306;2022-07-23T06:41:19;7.45;;;5.55;;
18899;SDS011;9582;52.018;6.306;2022-07-23T06:43:45;9.07;;;6.07;;
18899;SDS011;9582;52.018;6.306;2022-07-23T06:46:15;6.50;;;4.90;;
18899;SDS011;9582;52.018;6.306;2022-07-23T06:48:42;6.22;;;5.30;;
18899;SDS011;9582;52.018;6.306;2022-07-23T06:51:09;5.93;;;4.85;;
18899;SDS011;9582;52.018;6.306;2022-07-23T06:53:35;5.90;;;5.30;;
18899;SDS011;9582;52.018;6.306;2022-07-23T06:56:01;6.07;;;4.50;;
18899;SDS011;9582;52.018;6.306;2022-07-23T06:58:28;4.50;;;4.10;;
18899;SDS011;9582;52.018;6.306;2022-07-23T07:00:54;5.15;;;4.65;;
18899;SDS011;9582;52.018;6.306;2022-07-23T07:03:23;5.90;;;4.20;;
18899;SDS011;9582;52.018;6.306;2022-07-23T07:05:49;4.90;;;4.40;;
18899;SDS011;9582;52.018;6.306;2022-07-23T07:08:17;4.78;;;3.80;;
18899;SDS011;9582;52.018;6.306;2022-07-23T07:10:43;6.03;;;3.50;;
18899;SDS011;9582;52.018;6.306;2022-07-23T07:13:10;4.45;;;3.83;;
18899;SDS011;9582;52.018;6.306;2022-07-23T07:15:36;4.55;;;4.05;;
18899;SDS011;9582;52.018;6.306;2022-07-23T07:18:03;6.03;;;3.80;;
18899;SDS011;9582;52.018;6.306;2022-07-23T07:20:31;4.07;;;3.10;;
18899;SDS011;9582;52.018;6.306;2022-07-23T07:22:57;4.00;;;2.80;;
18899;SDS011;9582;52.018;6.306;2022-07-23T07:25:24;5.95;;;3.60;;
18899;SDS011;9582;52.018;6.306;2022-07-23T07:27:51;9.38;;;3.38;;
18899;SDS011;9582;52.018;6.306;2022-07-23T07:30:17;4.90;;;3.00;;
18899;SDS011;9582;52.018;6.306;2022-07-23T07:32:44;3.67;;;2.97;;
18899;SDS011;9582;52.018;6.306;2022-07-23T07:35:10;3.05;;;2.75;;
18899;SDS011;9582;52.018;6.306;2022-07-23T07:37:38;3.67;;;2.75;;
18899;SDS011;9582;52.018;6.306;2022-07-23T07:40:05;4.07;;;2.97;;
18899;SDS011;9582;52.018;6.306;2022-07-23T07:42:32;4.97;;;2.83;;
18899;SDS011;9582;52.018;6.306;2022-07-23T07:44:59;4.53;;;2.67;;
18899;SDS011;9582;52.018;6.306;2022-07-23T07:47:26;4.10;;;2.78;;
18899;SDS011;9582;52.018;6.306;2022-07-23T07:49:52;4.40;;;2.53;;
18899;SDS011;9582;52.018;6.306;2022-07-23T07:52:19;4.43;;;2.80;;
18899;SDS011;9582;52.018;6.306;2022-07-23T07:54:46;4.63;;;2.42;;
18899;SDS011;9582;52.018;6.306;2022-07-23T07:57:13;3.38;;;3.00;;
18899;SDS011;9582;52.018;6.306;2022-07-23T07:59:39;4.38;;;3.28;;
18899;SDS011;9582;52.018;6.306;2022-07-23T08:02:06;5.00;;;3.47;;
18899;SDS011;9582;52.018;6.306;2022-07-23T08:04:32;5.82;;;2.70;;
18899;SDS011;9582;52.018;6.306;2022-07-23T08:06:59;3.50;;;3.20;;
18899;SDS011;9582;52.018;6.306;2022-07-23T08:09:25;5.78;;;3.80;;
18899;SDS011;9582;52.018;6.306;2022-07-23T08:11:53;5.70;;;3.50;;
18899;SDS011;9582;52.018;6.306;2022-07-23T08:14:19;6.22;;;3.85;;
18899;SDS011;9582;52.018;6.306;2022-07-23T08:16:46;6.15;;;3.75;;
18899;SDS011;9582;52.018;6.306;2022-07-23T08:19:12;4.30;;;3.92;;
18899;SDS011;9582;52.018;6.306;2022-07-23T08:21:39;3.35;;;3.00;;
18899;SDS011;9582;52.018;6.306;2022-07-23T08:24:05;4.55;;;3.00;;
18899;SDS011;9582;52.018;6.306;2022-07-23T08:26:32;4.68;;;3.00;;
18899;SDS011;9582;52.018;6.306;2022-07-23T08:29:00;3.70;;;3.38;;
18899;SDS011;9582;52.018;6.306;2022-07-23T08:31:26;3.70;;;3.40;;
18899;SDS011;9582;52.018;6.306;2022-07-23T08:33:53;5.03;;;3.60;;
18899;SDS011;9582;52.018;6.306;2022-07-23T08:36:20;4.53;;;3.20;;
18899;SDS011;9582;52.018;6.306;2022-07-23T08:38:46;4.68;;;3.88;;
18899;SDS011;9582;52.018;6.306;2022-07-23T08:41:13;4.43;;;3.67;;
18899;SDS011;9582;52.018;6.306;2022-07-23T08:43:40;4.10;;;3.70;;
18899;SDS011;9582;52.018;6.306;2022-07-23T08:46:09;3.78;;;3.15;;
18899;SDS011;9582;52.018;6.306;2022-07-23T08:48:35;5.68;;;2.90;;
18899;SDS011;9582;52.018;6.306;2022-07-23T08:51:03;5.53;;;3.55;;
18899;SDS011;9582;52.018;6.306;2022-07-23T08:53:31;4.20;;;3.13;;
18899;SDS011;9582;52.018;6.306;2022-07-23T08:56:01;5.70;;;3.83;;
18899;SDS011;9582;52.018;6.306;2022-07-23T08:58:29;3.40;;;3.10;;
18899;SDS011;9582;52.018;6.306;2022-07-23T09:00:56;5.07;;;3.42;;
18899;SDS011;9582;52.018;6.306;2022-07-23T09:03:25;4.20;;;3.60;;
18899;SDS011;9582;52.018;6.306;2022-07-23T09:05:53;3.70;;;3.33;;
18899;SDS011;9582;52.018;6.306;2022-07-23T09:08:23;4.80;;;2.80;;
18899;SDS011;9582;52.018;6.306;2022-07-23T09:10:52;4.55;;;2.75;;
18899;SDS011;9582;52.018;6.306;2022-07-23T09:13:23;2.70;;;2.40;;
18899;SDS011;9582;52.018;6.306;2022-07-23T09:15:55;5.07;;;3.08;;
18899;SDS011;9582;52.018;6.306;2022-07-23T09:18:32;4.72;;;2.78;;
18899;SDS011;9582;52.018;6.306;2022-07-23T09:23:49;4.30;;;2.83;;
18899;SDS011;9582;52.018;6.306;2022-07-23T09:26:22;3.63;;;3.22;;
18899;SDS011;9582;52.018;6.306;2022-07-23T09:28:52;3.95;;;3.15;;
18899;SDS011;9582;52.018;6.306;2022-07-23T09:31:20;4.18;;;2.50;;
18899;SDS011;9582;52.018;6.306;2022-07-23T09:33:49;3.33;;;2.80;;
18899;SDS011;9582;52.018;6.306;2022-07-23T09:36:18;2.88;;;2.50;;
18899;SDS011;9582;52.018;6.306;2022-07-23T09:38:53;5.28;;;2.97;;
18899;SDS011;9582;52.018;6.306;2022-07-23T09:41:20;4.45;;;2.50;;
18899;SDS011;9582;52.018;6.306;2022-07-23T09:43:54;4.35;;;2.90;;
18899;SDS011;9582;52.018;6.306;2022-07-23T09:46:22;4.32;;;2.53;;
18899;SDS011;9582;52.018;6.306;2022-07-23T09:48:51;3.22;;;2.10;;
18899;SDS011;9582;52.018;6.306;2022-07-23T09:51:18;2.42;;;2.00;;
18899;SDS011;9582;52.018;6.306;2022-07-23T09:53:48;2.40;;;2.20;;
18899;SDS011;9582;52.018;6.306;2022-07-23T09:56:15;3.03;;;1.88;;
18899;SDS011;9582;52.018;6.306;2022-07-23T09:58:42;5.45;;;2.45;;
18899;SDS011;9582;52.018;6.306;2022-07-23T10:01:14;4.82;;;2.45;;
18899;SDS011;9582;52.018;6.306;2022-07-23T10:03:41;3.42;;;2.75;;
18899;SDS011;9582;52.018;6.306;2022-07-23T10:06:45;4.85;;;2.67;;
18899;SDS011;9582;52.018;6.306;2022-07-23T10:09:31;5.68;;;2.83;;
18899;SDS011;9582;52.018;6.306;2022-07-23T10:12:19;4.22;;;2.65;;
18899;SDS011;9582;52.018;6.306;2022-07-23T10:15:15;2.22;;;2.03;;
18899;SDS011;9582;52.018;6.306;2022-07-23T10:17:41;2.75;;;1.95;;
18899;SDS011;9582;52.018;6.306;2022-07-23T10:20:08;3.55;;;2.08;;
18899;SDS011;9582;52.018;6.306;2022-07-23T10:22:37;3.63;;;2.17;;
18899;SDS011;9582;52.018;6.306;2022-07-23T10:25:09;3.78;;;2.20;;
18899;SDS011;9582;52.018;6.306;2022-07-23T10:27:44;4.32;;;2.00;;
18899;SDS011;9582;52.018;6.306;2022-07-23T10:30:18;3.95;;;2.58;;
18899;SDS011;9582;52.018;6.306;2022-07-23T10:32:50;3.25;;;2.28;;
18899;SDS011;9582;52.018;6.306;2022-07-23T10:35:26;3.05;;;2.25;;
18899;SDS011;9582;52.018;6.306;2022-07-23T10:38:03;5.68;;;2.70;;
18899;SDS011;9582;52.018;6.306;2022-07-23T10:40:37;2.50;;;2.30;;
18899;SDS011;9582;52.018;6.306;2022-07-23T10:43:19;3.45;;;2.20;;
18899;SDS011;9582;52.018;6.306;2022-07-23T10:45:46;2.45;;;2.20;;
18899;SDS011;9582;52.018;6.306;2022-07-23T10:48:16;2.92;;;2.00;;
18899;SDS011;9582;52.018;6.306;2022-07-23T10:50:44;4.28;;;2.03;;
18899;SDS011;9582;52.018;6.306;2022-07-23T10:53:54;3.70;;;2.17;;
18899;SDS011;9582;52.018;6.306;2022-07-23T11:02:33;4.47;;;2.13;;
18899;SDS011;9582;52.018;6.306;2022-07-23T11:05:03;2.60;;;2.22;;
18899;SDS011;9582;52.018;6.306;2022-07-23T11:07:31;3.70;;;2.38;;
18899;SDS011;9582;52.018;6.306;2022-07-23T11:09:59;2.80;;;2.38;;
18899;SDS011;9582;52.018;6.306;2022-07-23T11:12:32;3.92;;;2.65;;
18899;SDS011;9582;52.018;6.306;2022-07-23T11:15:04;4.00;;;2.28;;
18899;SDS011;9582;52.018;6.306;2022-07-23T11:17:33;3.05;;;2.22;;
18899;SDS011;9582;52.018;6.306;2022-07-23T11:20:13;2.63;;;2.20;;
18899;SDS011;9582;52.018;6.306;2022-07-23T11:22:47;5.25;;;2.78;;
18899;SDS011;9582;52.018;6.306;2022-07-23T11:25:35;6.05;;;2.47;;
18899;SDS011;9582;52.018;6.306;2022-07-23T11:28:09;2.92;;;2.20;;
18899;SDS011;9582;52.018;6.306;2022-07-23T11:30:37;4.65;;;2.50;;
18899;SDS011;9582;52.018;6.306;2022-07-23T11:33:21;3.00;;;2.80;;
18899;SDS011;9582;52.018;6.306;2022-07-23T11:35:48;3.17;;;2.63;;
18899;SDS011;9582;52.018;6.306;2022-07-23T11:38:28;3.17;;;2.35;;
18899;SDS011;9582;52.018;6.306;2022-07-23T11:40:58;3.70;;;2.40;;
18899;SDS011;9582;52.018;6.306;2022-07-23T11:43:25;3.83;;;2.72;;
18899;SDS011;9582;52.018;6.306;2022-07-23T11:45:53;4.95;;;2.88;;
18899;SDS011;9582;52.018;6.306;2022-07-23T11:48:23;4.10;;;2.35;;
18899;SDS011;9582;52.018;6.306;2022-07-23T11:50:52;4.75;;;3.08;;
18899;SDS011;9582;52.018;6.306;2022-07-23T11:53:23;3.28;;;2.47;;
18899;SDS011;9582;52.018;6.306;2022-07-23T11:55:50;3.60;;;2.60;;
18899;SDS011;9582;52.018;6.306;2022-07-23T11:58:18;5.65;;;2.83;;
18899;SDS011;9582;52.018;6.306;2022-07-23T12:00:45;2.92;;;2.60;;
18899;SDS011;9582;52.018;6.306;2022-07-23T12:03:11;4.15;;;2.83;;
18899;SDS011;9582;52.018;6.306;2022-07-23T12:05:38;3.03;;;2.75;;
18899;SDS011;9582;52.018;6.306;2022-07-23T12:08:06;3.42;;;3.13;;
18899;SDS011;9582;52.018;6.306;2022-07-23T12:10:35;3.13;;;2.67;;
18899;SDS011;9582;52.018;6.306;2022-07-23T12:13:03;4.82;;;2.45;;
18899;SDS011;9582;52.018;6.306;2022-07-23T12:15:33;3.47;;;2.38;;
18899;SDS011;9582;52.018;6.306;2022-07-23T12:18:04;3.08;;;2.42;;
18899;SDS011;9582;52.018;6.306;2022-07-23T12:20:32;3.00;;;2.50;;
18899;SDS011;9582;52.018;6.306;2022-07-23T12:23:01;3.13;;;2.65;;
18899;SDS011;9582;52.018;6.306;2022-07-23T12:25:31;2.90;;;2.20;;
18899;SDS011;9582;52.018;6.306;2022-07-23T12:28:00;3.10;;;2.50;;
18899;SDS011;9582;52.018;6.306;2022-07-23T12:30:29;4.15;;;2.72;;
18899;SDS011;9582;52.018;6.306;2022-07-23T12:32:59;2.88;;;2.67;;
18899;SDS011;9582;52.018;6.306;2022-07-23T12:35:30;3.17;;;2.88;;
18899;SDS011;9582;52.018;6.306;2022-07-23T12:37:59;4.30;;;2.92;;
18899;SDS011;9582;52.018;6.306;2022-07-23T12:40:28;2.28;;;2.08;;
18899;SDS011;9582;52.018;6.306;2022-07-23T12:42:56;2.58;;;2.25;;
18899;SDS011;9582;52.018;6.306;2022-07-23T12:45:25;4.22;;;2.38;;
18899;SDS011;9582;52.018;6.306;2022-07-23T12:47:59;4.00;;;2.40;;
18899;SDS011;9582;52.018;6.306;2022-07-23T12:50:36;3.70;;;2.50;;
18899;SDS011;9582;52.018;6.306;2022-07-23T12:53:05;2.53;;;2.33;;
18899;SDS011;9582;52.018;6.306;2022-07-23T12:55:33;2.67;;;2.47;;
18899;SDS011;9582;52.018;6.306;2022-07-23T12:58:04;2.92;;;2.72;;
18899;SDS011;9582;52.018;6.306;2022-07-23T13:00:32;4.15;;;2.50;;
18899;SDS011;9582;52.018;6.306;2022-07-23T13:03:00;3.10;;;2.50;;
18899;SDS011;9582;52.018;6.306;2022-07-23T13:05:26;4.43;;;2.70;;
18899;SDS011;9582;52.018;6.306;2022-07-23T13:07:53;3.95;;;2.55;;
18899;SDS011;9582;52.018;6.306;2022-07-23T13:10:19;4.68;;;2.65;;
18899;SDS011;9582;52.018;6.306;2022-07-23T13:12:46;4.65;;;2.33;;
18899;SDS011;9582;52.018;6.306;2022-07-23T13:15:12;4.50;;;2.15;;
18899;SDS011;9582;52.018;6.306;2022-07-23T13:17:39;2.90;;;2.40;;
18899;SDS011;9582;52.018;6.306;2022-07-23T13:20:07;2.83;;;2.35;;
18899;SDS011;9582;52.018;6.306;2022-07-23T13:22:34;4.50;;;2.88;;
18899;SDS011;9582;52.018;6.306;2022-07-23T13:25:01;3.00;;;2.58;;
18899;SDS011;9582;52.018;6.306;2022-07-23T13:27:27;3.83;;;2.65;;
18899;SDS011;9582;52.018;6.306;2022-07-23T13:29:54;4.28;;;2.30;;
18899;SDS011;9582;52.018;6.306;2022-07-23T13:32:20;2.85;;;2.50;;
18899;SDS011;9582;52.018;6.306;2022-07-23T13:34:46;4.50;;;2.55;;
18899;SDS011;9582;52.018;6.306;2022-07-23T13:37:14;3.05;;;2.47;;
18899;SDS011;9582;52.018;6.306;2022-07-23T13:39:41;3.17;;;2.45;;
18899;SDS011;9582;52.018;6.306;2022-07-23T13:42:07;5.72;;;2.92;;
18899;SDS011;9582;52.018;6.306;2022-07-23T13:44:34;2.67;;;2.25;;
18899;SDS011;9582;52.018;6.306;2022-07-23T13:47:01;3.00;;;2.70;;
18899;SDS011;9582;52.018;6.306;2022-07-23T13:49:27;2.95;;;2.75;;
18899;SDS011;9582;52.018;6.306;2022-07-23T13:51:54;2.97;;;2.67;;
18899;SDS011;9582;52.018;6.306;2022-07-23T13:54:23;2.40;;;2.20;;
18899;SDS011;9582;52.018;6.306;2022-07-23T13:56:50;3.15;;;2.45;;
18899;SDS011;9582;52.018;6.306;2022-07-23T13:59:16;2.78;;;2.30;;
18899;SDS011;9582;52.018;6.306;2022-07-23T14:01:43;3.90;;;2.53;;
18899;SDS011;9582;52.018;6.306;2022-07-23T14:04:10;2.90;;;2.70;;
18899;SDS011;9582;52.018;6.306;2022-07-23T14:06:36;5.15;;;2.58;;
18899;SDS011;9582;52.018;6.306;2022-07-23T14:09:03;5.65;;;2.80;;
18899;SDS011;9582;52.018;6.306;2022-07-23T14:11:31;3.90;;;2.72;;
18899;SDS011;9582;52.018;6.306;2022-07-23T14:13:57;3.08;;;2.78;;
18899;SDS011;9582;52.018;6.306;2022-07-23T14:16:25;5.10;;;2.70;;
18899;SDS011;9582;52.018;6.306;2022-07-23T14:18:52;3.83;;;3.03;;
18899;SDS011;9582;52.018;6.306;2022-07-23T14:21:19;3.05;;;2.70;;
18899;SDS011;9582;52.018;6.306;2022-07-23T14:23:45;2.58;;;2.28;;
18899;SDS011;9582;52.018;6.306;2022-07-23T14:26:12;2.83;;;2.60;;
18899;SDS011;9582;52.018;6.306;2022-07-23T14:28:40;3.67;;;2.20;;
18899;SDS011;9582;52.018;6.306;2022-07-23T14:31:07;2.65;;;2.45;;
18899;SDS011;9582;52.018;6.306;2022-07-23T14:33:33;4.18;;;2.67;;
18899;SDS011;9582;52.018;6.306;2022-07-23T14:36:00;3.40;;;2.60;;
18899;SDS011;9582;52.018;6.306;2022-07-23T14:38:26;4.43;;;2.60;;
18899;SDS011;9582;52.018;6.306;2022-07-23T14:40:55;4.47;;;2.53;;
18899;SDS011;9582;52.018;6.306;2022-07-23T14:43:21;3.17;;;2.88;;
18899;SDS011;9582;52.018;6.306;2022-07-23T14:45:49;3.38;;;2.60;;
18899;SDS011;9582;52.018;6.306;2022-07-23T14:48:16;3.75;;;2.50;;
18899;SDS011;9582;52.018;6.306;2022-07-23T14:50:42;4.60;;;2.63;;
18899;SDS011;9582;52.018;6.306;2022-07-23T14:53:09;3.15;;;2.70;;
18899;SDS011;9582;52.018;6.306;2022-07-23T14:55:35;4.63;;;2.70;;
18899;SDS011;9582;52.018;6.306;2022-07-23T14:58:02;2.97;;;2.40;;
18899;SDS011;9582;52.018;6.306;2022-07-23T15:00:28;3.13;;;2.70;;
18899;SDS011;9582;52.018;6.306;2022-07-23T15:02:56;3.83;;;2.60;;
18899;SDS011;9582;52.018;6.306;2022-07-23T15:05:22;3.00;;;2.80;;
18899;SDS011;9582;52.018;6.306;2022-07-23T15:07:49;4.25;;;3.20;;
18899;SDS011;9582;52.018;6.306;2022-07-23T15:10:16;3.58;;;2.83;;
18899;SDS011;9582;52.018;6.306;2022-07-23T15:12:42;3.85;;;2.60;;
18899;SDS011;9582;52.018;6.306;2022-07-23T15:15:09;3.60;;;2.60;;